sensor_id;sensor_type;location;lat;lon;timestamp;P1;durP1;ratioP1;P2;durP2;ratioP2
35685;SDS011;21808;42.142;24.720;2024-02-26T00:00:09;66.80;;;30.02;;
35685;SDS011;21808;42.142;24.720;2024-02-26T00:02:36;53.38;;;25.13;;
35685;SDS011;21808;42.142;24.720;2024-02-26T00:05:04;53.58;;;24.83;;
35685;SDS011;21808;42.142;24.720;2024-02-26T00:07:31;73.18;;;28.85;;
35685;SDS011;21808;42.142;24.720;2024-02-26T00:09:59;65.47;;;26.27;;
35685;SDS011;21808;42.142;24.720;2024-02-26T00:12:26;57.10;;;25.50;;
35685;SDS011;21808;42.142;24.720;2024-02-26T00:14:53;56.42;;;25.50;;
35685;SDS011;21808;42.142;24.720;2024-02-26T00:17:20;54.45;;;25.40;;
35685;SDS011;21808;42.142;24.720;2024-02-26T00:19:46;46.85;;;22.52;;
35685;SDS011;21808;42.142;24.720;2024-02-26T00:22:13;52.45;;;22.75;;
35685;SDS011;21808;42.142;24.720;2024-02-26T00:24:40;58.83;;;27.35;;
35685;SDS011;21808;42.142;24.720;2024-02-26T00:27:08;54.83;;;25.40;;
35685;SDS011;21808;42.142;24.720;2024-02-26T00:29:35;49.42;;;23.60;;
35685;SDS011;21808;42.142;24.720;2024-02-26T00:32:02;48.95;;;23.30;;
35685;SDS011;21808;42.142;24.720;2024-02-26T00:34:28;51.28;;;23.65;;
35685;SDS011;21808;42.142;24.720;2024-02-26T00:36:55;47.95;;;22.55;;
35685;SDS011;21808;42.142;24.720;2024-02-26T00:39:22;46.72;;;22.77;;
35685;SDS011;21808;42.142;24.720;2024-02-26T00:41:49;42.28;;;21.17;;
35685;SDS011;21808;42.142;24.720;2024-02-26T00:44:19;48.50;;;22.70;;
35685;SDS011;21808;42.142;24.720;2024-02-26T00:46:46;45.90;;;22.02;;
35685;SDS011;21808;42.142;24.720;2024-02-26T00:49:12;47.88;;;21.50;;
35685;SDS011;21808;42.142;24.720;2024-02-26T00:51:39;44.42;;;20.05;;
35685;SDS011;21808;42.142;24.720;2024-02-26T00:54:06;47.03;;;22.70;;
35685;SDS011;21808;42.142;24.720;2024-02-26T00:56:33;36.50;;;16.55;;
35685;SDS011;21808;42.142;24.720;2024-02-26T00:58:59;42.42;;;20.00;;
35685;SDS011;21808;42.142;24.720;2024-02-26T01:01:27;47.28;;;19.77;;
35685;SDS011;21808;42.142;24.720;2024-02-26T01:03:54;46.22;;;19.15;;
35685;SDS011;21808;42.142;24.720;2024-02-26T01:06:21;42.38;;;17.73;;
35685;SDS011;21808;42.142;24.720;2024-02-26T01:08:49;33.20;;;15.63;;
35685;SDS011;21808;42.142;24.720;2024-02-26T01:11:15;35.22;;;16.55;;
35685;SDS011;21808;42.142;24.720;2024-02-26T01:13:42;30.35;;;13.50;;
35685;SDS011;21808;42.142;24.720;2024-02-26T01:16:09;37.83;;;18.17;;
35685;SDS011;21808;42.142;24.720;2024-02-26T01:18:38;33.97;;;16.60;;
35685;SDS011;21808;42.142;24.720;2024-02-26T01:21:05;38.28;;;16.45;;
35685;SDS011;21808;42.142;24.720;2024-02-26T01:23:35;42.20;;;18.35;;
35685;SDS011;21808;42.142;24.720;2024-02-26T01:26:02;35.63;;;16.50;;
35685;SDS011;21808;42.142;24.720;2024-02-26T01:28:29;39.00;;;17.63;;
35685;SDS011;21808;42.142;24.720;2024-02-26T01:30:56;33.47;;;15.10;;
35685;SDS011;21808;42.142;24.720;2024-02-26T01:33:24;35.25;;;14.85;;
35685;SDS011;21808;42.142;24.720;2024-02-26T01:35:53;33.67;;;15.60;;
35685;SDS011;21808;42.142;24.720;2024-02-26T01:38:19;39.30;;;17.08;;
35685;SDS011;21808;42.142;24.720;2024-02-26T01:40:46;37.63;;;16.40;;
35685;SDS011;21808;42.142;24.720;2024-02-26T01:43:13;32.58;;;16.00;;
35685;SDS011;21808;42.142;24.720;2024-02-26T01:45:39;37.70;;;17.15;;
35685;SDS011;21808;42.142;24.720;2024-02-26T01:48:06;35.97;;;16.92;;
35685;SDS011;21808;42.142;24.720;2024-02-26T01:50:37;23.92;;;12.18;;
35685;SDS011;21808;42.142;24.720;2024-02-26T01:53:06;37.47;;;17.20;;
35685;SDS011;21808;42.142;24.720;2024-02-26T01:55:33;31.10;;;14.02;;
35685;SDS011;21808;42.142;24.720;2024-02-26T01:58:00;40.47;;;16.80;;
35685;SDS011;21808;42.142;24.720;2024-02-26T02:00:26;36.40;;;16.13;;
35685;SDS011;21808;42.142;24.720;2024-02-26T02:02:54;26.73;;;11.23;;
35685;SDS011;21808;42.142;24.720;2024-02-26T02:05:22;38.05;;;17.55;;
35685;SDS011;21808;42.142;24.720;2024-02-26T02:07:49;39.40;;;16.90;;
35685;SDS011;21808;42.142;24.720;2024-02-26T02:10:17;34.30;;;16.30;;
35685;SDS011;21808;42.142;24.720;2024-02-26T02:12:54;30.60;;;16.85;;
35685;SDS011;21808;42.142;24.720;2024-02-26T02:15:20;37.05;;;16.52;;
35685;SDS011;21808;42.142;24.720;2024-02-26T02:17:51;33.45;;;15.48;;
35685;SDS011;21808;42.142;24.720;2024-02-26T02:20:18;31.58;;;14.70;;
35685;SDS011;21808;42.142;24.720;2024-02-26T02:22:47;32.42;;;16.52;;
35685;SDS011;21808;42.142;24.720;2024-02-26T02:25:13;35.05;;;16.50;;
35685;SDS011;21808;42.142;24.720;2024-02-26T02:27:40;33.50;;;15.90;;
35685;SDS011;21808;42.142;24.720;2024-02-26T02:30:07;34.92;;;15.73;;
35685;SDS011;21808;42.142;24.720;2024-02-26T02:32:35;34.55;;;15.85;;
35685;SDS011;21808;42.142;24.720;2024-02-26T02:35:03;34.38;;;16.17;;
35685;SDS011;21808;42.142;24.720;2024-02-26T02:37:30;35.40;;;16.75;;
35685;SDS011;21808;42.142;24.720;2024-02-26T02:39:58;43.58;;;16.20;;
35685;SDS011;21808;42.142;24.720;2024-02-26T02:42:25;36.47;;;17.77;;
35685;SDS011;21808;42.142;24.720;2024-02-26T02:44:52;32.83;;;15.75;;
35685;SDS011;21808;42.142;24.720;2024-02-26T02:47:19;33.00;;;15.05;;
35685;SDS011;21808;42.142;24.720;2024-02-26T02:49:45;35.38;;;16.00;;
35685;SDS011;21808;42.142;24.720;2024-02-26T02:52:12;32.53;;;14.93;;
35685;SDS011;21808;42.142;24.720;2024-02-26T02:54:39;35.60;;;16.10;;
35685;SDS011;21808;42.142;24.720;2024-02-26T02:57:09;36.53;;;15.40;;
35685;SDS011;21808;42.142;24.720;2024-02-26T02:59:36;36.30;;;16.73;;
35685;SDS011;21808;42.142;24.720;2024-02-26T03:02:03;34.08;;;16.45;;
35685;SDS011;21808;42.142;24.720;2024-02-26T03:04:31;31.50;;;15.20;;
35685;SDS011;21808;42.142;24.720;2024-02-26T03:06:58;33.40;;;14.65;;
35685;SDS011;21808;42.142;24.720;2024-02-26T03:09:25;32.05;;;14.68;;
35685;SDS011;21808;42.142;24.720;2024-02-26T03:11:52;31.92;;;15.13;;
35685;SDS011;21808;42.142;24.720;2024-02-26T03:14:20;34.25;;;15.57;;
35685;SDS011;21808;42.142;24.720;2024-02-26T03:16:47;32.58;;;15.68;;
35685;SDS011;21808;42.142;24.720;2024-02-26T03:19:14;36.75;;;15.32;;
35685;SDS011;21808;42.142;24.720;2024-02-26T03:21:40;29.05;;;14.48;;
35685;SDS011;21808;42.142;24.720;2024-02-26T03:24:07;33.03;;;15.30;;
35685;SDS011;21808;42.142;24.720;2024-02-26T03:26:37;32.65;;;15.68;;
35685;SDS011;21808;42.142;24.720;2024-02-26T03:29:03;32.85;;;15.38;;
35685;SDS011;21808;42.142;24.720;2024-02-26T03:31:31;34.13;;;15.73;;
35685;SDS011;21808;42.142;24.720;2024-02-26T03:33:58;34.10;;;15.85;;
35685;SDS011;21808;42.142;24.720;2024-02-26T03:36:25;33.90;;;15.45;;
35685;SDS011;21808;42.142;24.720;2024-02-26T03:38:52;32.15;;;15.95;;
35685;SDS011;21808;42.142;24.720;2024-02-26T03:41:19;38.20;;;16.75;;
35685;SDS011;21808;42.142;24.720;2024-02-26T03:43:45;33.30;;;15.05;;
35685;SDS011;21808;42.142;24.720;2024-02-26T03:46:12;36.15;;;16.98;;
35685;SDS011;21808;42.142;24.720;2024-02-26T03:48:41;33.40;;;16.25;;
35685;SDS011;21808;42.142;24.720;2024-02-26T03:51:08;36.83;;;17.92;;
35685;SDS011;21808;42.142;24.720;2024-02-26T03:53:35;37.45;;;18.77;;
35685;SDS011;21808;42.142;24.720;2024-02-26T03:56:03;36.92;;;16.90;;
35685;SDS011;21808;42.142;24.720;2024-02-26T03:58:30;38.58;;;19.38;;
35685;SDS011;21808;42.142;24.720;2024-02-26T04:00:56;38.63;;;19.08;;
35685;SDS011;21808;42.142;24.720;2024-02-26T04:03:23;37.17;;;17.95;;
35685;SDS011;21808;42.142;24.720;2024-02-26T04:05:51;40.40;;;16.85;;
35685;SDS011;21808;42.142;24.720;2024-02-26T04:08:18;39.60;;;18.85;;
35685;SDS011;21808;42.142;24.720;2024-02-26T04:10:45;36.03;;;18.42;;
35685;SDS011;21808;42.142;24.720;2024-02-26T04:13:12;35.30;;;17.02;;
35685;SDS011;21808;42.142;24.720;2024-02-26T04:15:38;41.25;;;19.45;;
35685;SDS011;21808;42.142;24.720;2024-02-26T04:18:05;40.40;;;17.67;;
35685;SDS011;21808;42.142;24.720;2024-02-26T04:20:34;38.10;;;17.08;;
35685;SDS011;21808;42.142;24.720;2024-02-26T04:23:02;32.55;;;17.17;;
35685;SDS011;21808;42.142;24.720;2024-02-26T04:25:32;36.95;;;18.23;;
35685;SDS011;21808;42.142;24.720;2024-02-26T04:27:58;30.17;;;14.38;;
35685;SDS011;21808;42.142;24.720;2024-02-26T04:30:25;27.20;;;13.38;;
35685;SDS011;21808;42.142;24.720;2024-02-26T04:32:52;26.90;;;12.45;;
35685;SDS011;21808;42.142;24.720;2024-02-26T04:35:19;26.90;;;12.82;;
35685;SDS011;21808;42.142;24.720;2024-02-26T04:37:45;29.02;;;13.98;;
35685;SDS011;21808;42.142;24.720;2024-02-26T04:40:14;28.48;;;13.18;;
35685;SDS011;21808;42.142;24.720;2024-02-26T04:42:40;29.35;;;13.70;;
35685;SDS011;21808;42.142;24.720;2024-02-26T04:45:07;26.60;;;13.23;;
35685;SDS011;21808;42.142;24.720;2024-02-26T04:47:35;30.52;;;14.10;;
35685;SDS011;21808;42.142;24.720;2024-02-26T04:50:02;26.13;;;12.40;;
35685;SDS011;21808;42.142;24.720;2024-02-26T04:52:28;27.48;;;13.48;;
35685;SDS011;21808;42.142;24.720;2024-02-26T04:54:55;26.30;;;12.02;;
35685;SDS011;21808;42.142;24.720;2024-02-26T04:57:23;28.50;;;12.73;;
35685;SDS011;21808;42.142;24.720;2024-02-26T04:59:50;22.33;;;11.65;;
35685;SDS011;21808;42.142;24.720;2024-02-26T05:02:17;22.75;;;11.15;;
35685;SDS011;21808;42.142;24.720;2024-02-26T05:04:44;27.80;;;11.85;;
35685;SDS011;21808;42.142;24.720;2024-02-26T05:07:11;26.67;;;12.45;;
35685;SDS011;21808;42.142;24.720;2024-02-26T05:09:39;28.10;;;12.98;;
35685;SDS011;21808;42.142;24.720;2024-02-26T05:12:06;22.63;;;9.45;;
35685;SDS011;21808;42.142;24.720;2024-02-26T05:14:34;29.48;;;12.48;;
35685;SDS011;21808;42.142;24.720;2024-02-26T05:17:01;31.13;;;10.48;;
35685;SDS011;21808;42.142;24.720;2024-02-26T05:19:28;26.20;;;10.73;;
35685;SDS011;21808;42.142;24.720;2024-02-26T05:21:54;25.63;;;11.18;;
35685;SDS011;21808;42.142;24.720;2024-02-26T05:24:23;19.73;;;9.52;;
35685;SDS011;21808;42.142;24.720;2024-02-26T05:26:50;25.52;;;11.70;;
35685;SDS011;21808;42.142;24.720;2024-02-26T05:29:16;25.13;;;11.73;;
35685;SDS011;21808;42.142;24.720;2024-02-26T05:31:44;25.85;;;11.75;;
35685;SDS011;21808;42.142;24.720;2024-02-26T05:34:11;25.45;;;12.50;;
35685;SDS011;21808;42.142;24.720;2024-02-26T05:36:38;31.33;;;14.13;;
35685;SDS011;21808;42.142;24.720;2024-02-26T05:39:05;37.28;;;16.20;;
35685;SDS011;21808;42.142;24.720;2024-02-26T05:41:32;31.95;;;14.05;;
35685;SDS011;21808;42.142;24.720;2024-02-26T05:43:59;28.92;;;15.27;;
35685;SDS011;21808;42.142;24.720;2024-02-26T05:46:26;30.98;;;12.90;;
35685;SDS011;21808;42.142;24.720;2024-02-26T05:48:55;27.80;;;13.10;;
35685;SDS011;21808;42.142;24.720;2024-02-26T05:51:22;27.75;;;11.55;;
35685;SDS011;21808;42.142;24.720;2024-02-26T05:53:49;28.17;;;12.88;;
35685;SDS011;21808;42.142;24.720;2024-02-26T05:56:21;31.67;;;12.27;;
35685;SDS011;21808;42.142;24.720;2024-02-26T05:58:47;27.60;;;11.70;;
35685;SDS011;21808;42.142;24.720;2024-02-26T06:01:15;29.02;;;12.32;;
35685;SDS011;21808;42.142;24.720;2024-02-26T06:03:42;29.20;;;13.02;;
35685;SDS011;21808;42.142;24.720;2024-02-26T06:06:11;32.65;;;13.25;;
35685;SDS011;21808;42.142;24.720;2024-02-26T06:08:37;29.90;;;12.90;;
35685;SDS011;21808;42.142;24.720;2024-02-26T06:11:05;32.25;;;14.20;;
35685;SDS011;21808;42.142;24.720;2024-02-26T06:13:31;36.42;;;15.73;;
35685;SDS011;21808;42.142;24.720;2024-02-26T06:15:58;39.10;;;15.52;;
35685;SDS011;21808;42.142;24.720;2024-02-26T06:18:25;27.02;;;12.50;;
35685;SDS011;21808;42.142;24.720;2024-02-26T06:20:52;29.10;;;13.60;;
35685;SDS011;21808;42.142;24.720;2024-02-26T06:23:20;30.20;;;14.00;;
35685;SDS011;21808;42.142;24.720;2024-02-26T06:25:46;25.77;;;11.70;;
35685;SDS011;21808;42.142;24.720;2024-02-26T06:28:14;27.10;;;11.60;;
35685;SDS011;21808;42.142;24.720;2024-02-26T06:30:41;26.85;;;12.00;;
35685;SDS011;21808;42.142;24.720;2024-02-26T06:33:07;25.85;;;11.63;;
35685;SDS011;21808;42.142;24.720;2024-02-26T06:35:37;26.92;;;11.55;;
35685;SDS011;21808;42.142;24.720;2024-02-26T06:38:04;38.30;;;16.77;;
35685;SDS011;21808;42.142;24.720;2024-02-26T06:40:32;26.08;;;13.05;;
35685;SDS011;21808;42.142;24.720;2024-02-26T06:42:58;33.58;;;16.83;;
35685;SDS011;21808;42.142;24.720;2024-02-26T06:45:25;40.88;;;18.27;;
35685;SDS011;21808;42.142;24.720;2024-02-26T06:47:52;36.72;;;15.65;;
35685;SDS011;21808;42.142;24.720;2024-02-26T06:50:19;40.10;;;17.27;;
35685;SDS011;21808;42.142;24.720;2024-02-26T06:52:46;34.47;;;13.70;;
35685;SDS011;21808;42.142;24.720;2024-02-26T06:55:14;37.45;;;16.23;;
35685;SDS011;21808;42.142;24.720;2024-02-26T06:57:48;32.72;;;14.82;;
35685;SDS011;21808;42.142;24.720;2024-02-26T07:00:15;29.40;;;12.60;;
35685;SDS011;21808;42.142;24.720;2024-02-26T07:02:43;28.67;;;12.50;;
35685;SDS011;21808;42.142;24.720;2024-02-26T07:05:10;37.05;;;14.15;;
35685;SDS011;21808;42.142;24.720;2024-02-26T07:07:37;29.30;;;14.27;;
35685;SDS011;21808;42.142;24.720;2024-02-26T07:10:06;27.75;;;13.55;;
35685;SDS011;21808;42.142;24.720;2024-02-26T07:12:33;38.42;;;13.75;;
35685;SDS011;21808;42.142;24.720;2024-02-26T07:15:04;30.90;;;13.93;;
35685;SDS011;21808;42.142;24.720;2024-02-26T07:17:33;37.75;;;14.07;;
35685;SDS011;21808;42.142;24.720;2024-02-26T07:20:04;34.33;;;13.02;;
35685;SDS011;21808;42.142;24.720;2024-02-26T07:22:35;29.25;;;13.60;;
35685;SDS011;21808;42.142;24.720;2024-02-26T07:25:03;31.50;;;13.23;;
35685;SDS011;21808;42.142;24.720;2024-02-26T07:27:32;36.55;;;14.15;;
35685;SDS011;21808;42.142;24.720;2024-02-26T07:29:59;32.75;;;14.43;;
35685;SDS011;21808;42.142;24.720;2024-02-26T07:32:27;34.65;;;15.55;;
35685;SDS011;21808;42.142;24.720;2024-02-26T07:34:54;35.95;;;15.23;;
35685;SDS011;21808;42.142;24.720;2024-02-26T07:37:21;31.35;;;15.68;;
35685;SDS011;21808;42.142;24.720;2024-02-26T07:39:47;33.50;;;16.27;;
35685;SDS011;21808;42.142;24.720;2024-02-26T07:42:14;37.95;;;15.50;;
35685;SDS011;21808;42.142;24.720;2024-02-26T07:44:44;33.60;;;15.48;;
35685;SDS011;21808;42.142;24.720;2024-02-26T07:47:11;35.05;;;16.55;;
35685;SDS011;21808;42.142;24.720;2024-02-26T07:49:39;37.28;;;16.45;;
35685;SDS011;21808;42.142;24.720;2024-02-26T07:52:06;36.22;;;16.20;;
35685;SDS011;21808;42.142;24.720;2024-02-26T07:54:33;48.53;;;22.63;;
35685;SDS011;21808;42.142;24.720;2024-02-26T07:57:00;43.55;;;19.50;;
35685;SDS011;21808;42.142;24.720;2024-02-26T07:59:28;35.47;;;17.02;;
35685;SDS011;21808;42.142;24.720;2024-02-26T08:01:55;31.52;;;15.95;;
35685;SDS011;21808;42.142;24.720;2024-02-26T08:04:24;39.63;;;16.67;;
35685;SDS011;21808;42.142;24.720;2024-02-26T08:06:54;33.38;;;16.25;;
35685;SDS011;21808;42.142;24.720;2024-02-26T08:09:21;41.97;;;17.13;;
35685;SDS011;21808;42.142;24.720;2024-02-26T08:11:51;40.17;;;17.30;;
35685;SDS011;21808;42.142;24.720;2024-02-26T08:14:17;37.80;;;17.05;;
35685;SDS011;21808;42.142;24.720;2024-02-26T08:16:44;39.58;;;16.83;;
35685;SDS011;21808;42.142;24.720;2024-02-26T08:19:11;38.35;;;15.50;;
35685;SDS011;21808;42.142;24.720;2024-02-26T08:21:40;62.80;;;19.48;;
35685;SDS011;21808;42.142;24.720;2024-02-26T08:24:09;42.38;;;16.58;;
35685;SDS011;21808;42.142;24.720;2024-02-26T08:26:36;34.92;;;16.95;;
35685;SDS011;21808;42.142;24.720;2024-02-26T08:29:03;35.78;;;17.85;;
35685;SDS011;21808;42.142;24.720;2024-02-26T08:31:30;40.55;;;18.55;;
35685;SDS011;21808;42.142;24.720;2024-02-26T08:33:57;39.47;;;17.25;;
35685;SDS011;21808;42.142;24.720;2024-02-26T08:36:25;39.97;;;18.58;;
35685;SDS011;21808;42.142;24.720;2024-02-26T08:38:52;33.22;;;16.83;;
35685;SDS011;21808;42.142;24.720;2024-02-26T08:41:20;39.05;;;17.02;;
35685;SDS011;21808;42.142;24.720;2024-02-26T08:43:47;40.67;;;17.75;;
35685;SDS011;21808;42.142;24.720;2024-02-26T08:46:14;42.97;;;18.05;;
35685;SDS011;21808;42.142;24.720;2024-02-26T08:48:40;32.97;;;16.98;;
35685;SDS011;21808;42.142;24.720;2024-02-26T08:51:07;38.30;;;16.75;;
35685;SDS011;21808;42.142;24.720;2024-02-26T08:53:34;34.55;;;15.80;;
35685;SDS011;21808;42.142;24.720;2024-02-26T08:56:09;36.05;;;16.60;;
35685;SDS011;21808;42.142;24.720;2024-02-26T08:58:40;40.70;;;17.50;;
35685;SDS011;21808;42.142;24.720;2024-02-26T09:01:07;42.28;;;18.23;;
35685;SDS011;21808;42.142;24.720;2024-02-26T09:06:19;38.72;;;16.35;;
35685;SDS011;21808;42.142;24.720;2024-02-26T09:08:48;35.95;;;16.83;;
35685;SDS011;21808;42.142;24.720;2024-02-26T09:11:15;41.15;;;17.38;;
35685;SDS011;21808;42.142;24.720;2024-02-26T09:13:46;37.92;;;17.92;;
35685;SDS011;21808;42.142;24.720;2024-02-26T09:16:13;35.65;;;17.52;;
35685;SDS011;21808;42.142;24.720;2024-02-26T09:18:40;36.15;;;18.27;;
35685;SDS011;21808;42.142;24.720;2024-02-26T09:21:08;32.38;;;15.63;;
35685;SDS011;21808;42.142;24.720;2024-02-26T09:23:35;38.85;;;17.42;;
35685;SDS011;21808;42.142;24.720;2024-02-26T09:26:04;33.50;;;17.27;;
35685;SDS011;21808;42.142;24.720;2024-02-26T09:28:31;35.92;;;17.98;;
35685;SDS011;21808;42.142;24.720;2024-02-26T09:31:05;37.28;;;17.90;;
35685;SDS011;21808;42.142;24.720;2024-02-26T09:33:32;38.10;;;15.93;;
35685;SDS011;21808;42.142;24.720;2024-02-26T09:36:00;32.05;;;15.90;;
35685;SDS011;21808;42.142;24.720;2024-02-26T09:38:27;34.38;;;16.38;;
35685;SDS011;21808;42.142;24.720;2024-02-26T09:40:53;42.00;;;17.45;;
35685;SDS011;21808;42.142;24.720;2024-02-26T09:43:21;31.27;;;15.68;;
35685;SDS011;21808;42.142;24.720;2024-02-26T09:45:49;32.55;;;15.00;;
35685;SDS011;21808;42.142;24.720;2024-02-26T09:48:18;35.05;;;15.00;;
35685;SDS011;21808;42.142;24.720;2024-02-26T09:50:45;28.00;;;13.90;;
35685;SDS011;21808;42.142;24.720;2024-02-26T09:53:12;28.55;;;14.15;;
35685;SDS011;21808;42.142;24.720;2024-02-26T09:55:40;38.63;;;14.50;;
35685;SDS011;21808;42.142;24.720;2024-02-26T09:58:06;31.08;;;14.65;;
35685;SDS011;21808;42.142;24.720;2024-02-26T10:00:35;27.92;;;15.73;;
35685;SDS011;21808;42.142;24.720;2024-02-26T10:03:04;27.27;;;12.90;;
35685;SDS011;21808;42.142;24.720;2024-02-26T10:05:33;28.80;;;14.43;;
35685;SDS011;21808;42.142;24.720;2024-02-26T10:08:00;27.75;;;14.20;;
35685;SDS011;21808;42.142;24.720;2024-02-26T10:10:27;24.67;;;13.63;;
35685;SDS011;21808;42.142;24.720;2024-02-26T10:12:57;30.17;;;13.88;;
35685;SDS011;21808;42.142;24.720;2024-02-26T10:15:31;35.60;;;13.32;;
35685;SDS011;21808;42.142;24.720;2024-02-26T10:17:57;27.02;;;12.93;;
35685;SDS011;21808;42.142;24.720;2024-02-26T10:20:27;26.58;;;13.85;;
35685;SDS011;21808;42.142;24.720;2024-02-26T10:22:56;25.08;;;11.80;;
35685;SDS011;21808;42.142;24.720;2024-02-26T10:25:23;26.52;;;12.75;;
35685;SDS011;21808;42.142;24.720;2024-02-26T10:27:50;28.55;;;14.98;;
35685;SDS011;21808;42.142;24.720;2024-02-26T10:30:20;27.48;;;13.70;;
35685;SDS011;21808;42.142;24.720;2024-02-26T10:32:48;25.23;;;13.10;;
35685;SDS011;21808;42.142;24.720;2024-02-26T10:35:15;35.03;;;15.27;;
35685;SDS011;21808;42.142;24.720;2024-02-26T10:37:43;29.55;;;13.90;;
35685;SDS011;21808;42.142;24.720;2024-02-26T10:40:11;29.33;;;13.80;;
35685;SDS011;21808;42.142;24.720;2024-02-26T10:42:38;35.50;;;13.93;;
35685;SDS011;21808;42.142;24.720;2024-02-26T10:45:08;30.63;;;14.25;;
35685;SDS011;21808;42.142;24.720;2024-02-26T10:47:39;35.45;;;14.88;;
35685;SDS011;21808;42.142;24.720;2024-02-26T10:50:07;28.55;;;14.68;;
35685;SDS011;21808;42.142;24.720;2024-02-26T10:52:35;34.17;;;14.82;;
35685;SDS011;21808;42.142;24.720;2024-02-26T10:55:02;30.58;;;14.57;;
35685;SDS011;21808;42.142;24.720;2024-02-26T11:00:05;35.80;;;16.30;;
35685;SDS011;21808;42.142;24.720;2024-02-26T11:02:32;30.77;;;14.30;;
35685;SDS011;21808;42.142;24.720;2024-02-26T11:05:03;33.65;;;15.77;;
35685;SDS011;21808;42.142;24.720;2024-02-26T11:07:30;36.15;;;15.07;;
35685;SDS011;21808;42.142;24.720;2024-02-26T11:09:58;29.30;;;15.40;;
35685;SDS011;21808;42.142;24.720;2024-02-26T11:12:25;35.58;;;15.32;;
35685;SDS011;21808;42.142;24.720;2024-02-26T11:14:55;32.03;;;14.23;;
35685;SDS011;21808;42.142;24.720;2024-02-26T11:17:26;28.00;;;13.18;;
35685;SDS011;21808;42.142;24.720;2024-02-26T11:19:55;27.38;;;11.18;;
35685;SDS011;21808;42.142;24.720;2024-02-26T11:22:22;22.30;;;9.50;;
35685;SDS011;21808;42.142;24.720;2024-02-26T11:24:52;23.30;;;9.55;;
35685;SDS011;21808;42.142;24.720;2024-02-26T11:27:19;19.25;;;8.57;;
35685;SDS011;21808;42.142;24.720;2024-02-26T11:29:49;18.63;;;8.43;;
35685;SDS011;21808;42.142;24.720;2024-02-26T11:32:17;18.05;;;8.75;;
35685;SDS011;21808;42.142;24.720;2024-02-26T11:34:45;24.02;;;9.05;;
35685;SDS011;21808;42.142;24.720;2024-02-26T11:37:16;23.70;;;9.30;;
35685;SDS011;21808;42.142;24.720;2024-02-26T11:39:43;22.08;;;9.10;;
35685;SDS011;21808;42.142;24.720;2024-02-26T11:42:13;21.63;;;9.48;;
35685;SDS011;21808;42.142;24.720;2024-02-26T11:44:43;22.58;;;9.93;;
35685;SDS011;21808;42.142;24.720;2024-02-26T11:47:10;19.75;;;9.65;;
35685;SDS011;21808;42.142;24.720;2024-02-26T11:49:37;19.95;;;8.70;;
35685;SDS011;21808;42.142;24.720;2024-02-26T11:52:06;24.02;;;10.77;;
35685;SDS011;21808;42.142;24.720;2024-02-26T11:54:43;23.65;;;10.48;;
35685;SDS011;21808;42.142;24.720;2024-02-26T11:57:20;21.95;;;10.90;;
35685;SDS011;21808;42.142;24.720;2024-02-26T11:59:47;25.92;;;10.32;;
35685;SDS011;21808;42.142;24.720;2024-02-26T12:04:55;20.75;;;9.52;;
35685;SDS011;21808;42.142;24.720;2024-02-26T12:07:23;22.73;;;9.55;;
35685;SDS011;21808;42.142;24.720;2024-02-26T12:09:50;22.48;;;10.65;;
35685;SDS011;21808;42.142;24.720;2024-02-26T12:12:18;29.00;;;10.65;;
35685;SDS011;21808;42.142;24.720;2024-02-26T12:14:50;22.98;;;11.05;;
35685;SDS011;21808;42.142;24.720;2024-02-26T12:17:22;26.05;;;11.68;;
35685;SDS011;21808;42.142;24.720;2024-02-26T12:19:49;25.80;;;11.90;;
35685;SDS011;21808;42.142;24.720;2024-02-26T12:24:49;27.85;;;11.27;;
35685;SDS011;21808;42.142;24.720;2024-02-26T12:27:27;25.45;;;10.60;;
35685;SDS011;21808;42.142;24.720;2024-02-26T12:29:54;25.00;;;11.48;;
35685;SDS011;21808;42.142;24.720;2024-02-26T12:32:24;21.70;;;10.77;;
35685;SDS011;21808;42.142;24.720;2024-02-26T12:34:51;23.30;;;10.45;;
35685;SDS011;21808;42.142;24.720;2024-02-26T12:37:18;26.20;;;10.60;;
35685;SDS011;21808;42.142;24.720;2024-02-26T12:39:45;24.35;;;11.20;;
35685;SDS011;21808;42.142;24.720;2024-02-26T12:42:16;23.20;;;12.10;;
35685;SDS011;21808;42.142;24.720;2024-02-26T12:44:44;26.90;;;12.23;;
35685;SDS011;21808;42.142;24.720;2024-02-26T12:47:11;30.67;;;12.80;;
35685;SDS011;21808;42.142;24.720;2024-02-26T12:49:43;29.05;;;11.40;;
35685;SDS011;21808;42.142;24.720;2024-02-26T12:52:11;25.20;;;11.25;;
35685;SDS011;21808;42.142;24.720;2024-02-26T12:54:37;23.35;;;9.77;;
35685;SDS011;21808;42.142;24.720;2024-02-26T12:57:08;20.75;;;9.98;;
35685;SDS011;21808;42.142;24.720;2024-02-26T12:59:36;28.48;;;11.55;;
35685;SDS011;21808;42.142;24.720;2024-02-26T13:02:04;26.17;;;11.80;;
35685;SDS011;21808;42.142;24.720;2024-02-26T13:04:33;24.63;;;12.45;;
35685;SDS011;21808;42.142;24.720;2024-02-26T13:07:02;25.85;;;11.52;;
35685;SDS011;21808;42.142;24.720;2024-02-26T13:09:32;23.58;;;10.77;;
35685;SDS011;21808;42.142;24.720;2024-02-26T13:11:59;20.80;;;11.23;;
35685;SDS011;21808;42.142;24.720;2024-02-26T13:14:27;23.98;;;10.70;;
35685;SDS011;21808;42.142;24.720;2024-02-26T13:16:58;20.13;;;9.98;;
35685;SDS011;21808;42.142;24.720;2024-02-26T13:19:26;21.52;;;10.93;;
35685;SDS011;21808;42.142;24.720;2024-02-26T13:21:54;22.02;;;10.32;;
35685;SDS011;21808;42.142;24.720;2024-02-26T13:24:22;19.42;;;10.93;;
35685;SDS011;21808;42.142;24.720;2024-02-26T13:26:53;28.23;;;11.35;;
35685;SDS011;21808;42.142;24.720;2024-02-26T13:29:20;21.05;;;10.48;;
35685;SDS011;21808;42.142;24.720;2024-02-26T13:31:53;23.20;;;10.73;;
35685;SDS011;21808;42.142;24.720;2024-02-26T13:34:24;29.25;;;10.88;;
35685;SDS011;21808;42.142;24.720;2024-02-26T13:36:52;19.75;;;9.75;;
35685;SDS011;21808;42.142;24.720;2024-02-26T13:39:22;21.10;;;10.57;;
35685;SDS011;21808;42.142;24.720;2024-02-26T13:41:49;22.35;;;10.77;;
35685;SDS011;21808;42.142;24.720;2024-02-26T13:44:16;22.45;;;10.52;;
35685;SDS011;21808;42.142;24.720;2024-02-26T13:46:43;27.98;;;11.25;;
35685;SDS011;21808;42.142;24.720;2024-02-26T13:49:09;21.38;;;10.15;;
35685;SDS011;21808;42.142;24.720;2024-02-26T13:54:14;22.52;;;10.10;;
35685;SDS011;21808;42.142;24.720;2024-02-26T13:56:41;26.83;;;10.70;;
35685;SDS011;21808;42.142;24.720;2024-02-26T13:59:11;19.40;;;10.25;;
35685;SDS011;21808;42.142;24.720;2024-02-26T14:01:38;21.08;;;9.60;;
35685;SDS011;21808;42.142;24.720;2024-02-26T14:04:05;21.55;;;9.60;;
35685;SDS011;21808;42.142;24.720;2024-02-26T14:06:32;26.17;;;11.18;;
35685;SDS011;21808;42.142;24.720;2024-02-26T14:08:59;21.25;;;9.40;;
35685;SDS011;21808;42.142;24.720;2024-02-26T14:11:28;22.95;;;9.38;;
35685;SDS011;21808;42.142;24.720;2024-02-26T14:13:55;21.35;;;9.95;;
35685;SDS011;21808;42.142;24.720;2024-02-26T14:16:22;24.33;;;10.50;;
35685;SDS011;21808;42.142;24.720;2024-02-26T14:18:52;21.63;;;9.77;;
35685;SDS011;21808;42.142;24.720;2024-02-26T14:21:20;22.65;;;9.48;;
35685;SDS011;21808;42.142;24.720;2024-02-26T14:23:49;18.80;;;8.77;;
35685;SDS011;21808;42.142;24.720;2024-02-26T14:26:17;23.83;;;10.23;;